Time;durP1;ratioP1;P1;durP2;ratioP2;P2;SDS_P1;SDS_P2;PMS_P1;PMS_P2;Temp;Humidity;BMP_temperature;BMP_pressure;BME280_temperature;BME280_humidity;BME280_pressure;Samples;Min_cycle;Max_cycle;Signal;HPM_P1;HPM_P2
2022/04/12 00:01:53;;;;;;;20.63;13.47;;;6.20;99.90;;;;;;5034777;28;20320;-61
2022/04/12 00:04:41;;;;;;;25.67;13.70;;;6.10;99.90;;;;;;5022124;28;20322;-62
2022/04/12 00:07:31;;;;;;;21.97;13.03;;;6.10;99.90;;;;;;5028934;28;20220;-61
2022/04/12 00:10:20;;;;;;;18.67;13.33;;;6.10;99.90;;;;;;5028446;28;22474;-61
2022/04/12 00:13:09;;;;;;;22.23;12.63;;;6.10;99.90;;;;;;5036476;28;20231;-61
2022/04/12 00:15:58;;;;;;;20.67;13.53;;;5.90;99.90;;;;;;5039162;28;20758;-61
2022/04/12 00:19:04;;;;;;;18.03;12.90;;;5.80;99.90;;;;;;5037158;28;20244;-61
2022/04/12 00:21:53;;;;;;;19.93;12.50;;;5.70;99.90;;;;;;5036166;28;20216;-60
2022/04/12 00:24:43;;;;;;;20.50;13.03;;;5.80;99.90;;;;;;5042415;28;20303;-61
2022/04/12 00:27:31;;;;;;;19.13;12.90;;;5.60;99.90;;;;;;5051070;28;20718;-61
2022/04/12 00:30:21;;;;;;;18.30;12.73;;;5.70;99.90;;;;;;5037963;28;20322;-59
2022/04/12 00:33:10;;;;;;;19.47;12.73;;;5.80;99.90;;;;;;5049875;28;20221;-61
2022/04/12 00:36:00;;;;;;;19.50;12.70;;;5.80;99.90;;;;;;5063991;28;20475;-59
2022/04/12 00:38:49;;;;;;;20.27;13.47;;;5.70;99.90;;;;;;5065239;28;20932;-61
2022/04/12 00:41:39;;;;;;;21.03;14.10;;;5.60;99.90;;;;;;5053334;28;20250;-60
2022/04/12 00:44:28;;;;;;;25.60;16.93;;;5.40;99.90;;;;;;5044362;28;20231;-61
2022/04/12 00:47:17;;;;;;;20.17;13.30;;;5.30;99.90;;;;;;5056070;28;20230;-60
2022/04/12 00:50:06;;;;;;;21.80;13.27;;;5.30;99.90;;;;;;5062752;28;20231;-61
2022/04/12 00:52:56;;;;;;;22.40;13.40;;;5.40;99.90;;;;;;5056479;28;20777;-61
2022/04/12 00:55:49;;;;;;;23.57;14.80;;;5.20;99.90;;;;;;5056841;28;20224;-61
2022/04/12 00:58:40;;;;;;;23.17;13.87;;;5.20;99.90;;;;;;5052238;28;20226;-62
2022/04/12 01:01:32;;;;;;;22.70;14.23;;;5.20;99.90;;;;;;5048612;28;20243;-62
2022/04/12 01:04:21;;;;;;;20.07;14.13;;;5.10;99.90;;;;;;5042243;28;20231;-62
2022/04/12 01:07:11;;;;;;;23.03;14.00;;;5.10;99.90;;;;;;5035501;28;20228;-61
2022/04/12 01:09:59;;;;;;;23.73;14.73;;;5.00;99.90;;;;;;5051130;28;20244;-62
2022/04/12 01:12:48;;;;;;;23.13;14.60;;;4.90;99.90;;;;;;5039508;28;20228;-62
2022/04/12 01:15:39;;;;;;;24.20;14.50;;;5.00;99.90;;;;;;5038126;28;20223;-62
2022/04/12 01:18:28;;;;;;;23.07;14.13;;;5.10;99.90;;;;;;5037923;28;20243;-61
2022/04/12 01:21:16;;;;;;;22.37;14.77;;;5.20;99.90;;;;;;5058492;28;20227;-61
2022/04/12 01:24:08;;;;;;;21.57;13.83;;;5.30;99.90;;;;;;5050504;28;20232;-61
2022/04/12 01:26:57;;;;;;;22.93;15.23;;;5.30;99.90;;;;;;5049392;28;20312;-61
2022/04/12 01:29:52;;;;;;;25.87;16.33;;;5.30;99.90;;;;;;5053022;28;20227;-62
2022/04/12 01:32:41;;;;;;;21.97;14.47;;;5.20;99.90;;;;;;5044537;28;20794;-61
2022/04/12 01:35:29;;;;;;;25.60;16.47;;;5.10;99.90;;;;;;5038209;28;20224;-62
2022/04/12 01:38:18;;;;;;;22.63;15.50;;;5.00;99.90;;;;;;5039586;28;20889;-60
2022/04/12 01:41:11;;;;;;;26.03;15.37;;;5.00;99.90;;;;;;5040722;28;20300;-62
2022/04/12 01:44:00;;;;;;;21.97;14.17;;;5.00;99.90;;;;;;5036830;28;20239;-60
2022/04/12 01:46:49;;;;;;;25.40;14.63;;;5.10;99.90;;;;;;5052963;28;20237;-62
2022/04/12 01:49:37;;;;;;;25.67;15.43;;;5.10;99.90;;;;;;5055816;28;20312;-63
2022/04/12 01:52:26;;;;;;;26.60;15.13;;;5.00;99.90;;;;;;5037647;28;20223;-62
2022/04/12 01:55:15;;;;;;;22.87;14.90;;;5.00;99.90;;;;;;5052389;28;20220;-62
2022/04/12 01:58:05;;;;;;;25.10;15.23;;;4.90;99.90;;;;;;5055322;28;20217;-62
2022/04/12 02:00:54;;;;;;;22.87;14.63;;;4.90;99.90;;;;;;5058215;28;20221;-62
2022/04/12 02:03:43;;;;;;;21.97;14.90;;;4.80;99.90;;;;;;5058122;28;20239;-62
2022/04/12 02:06:31;;;;;;;23.27;15.10;;;4.80;99.90;;;;;;5067891;28;20224;-62
2022/04/12 02:09:20;;;;;;;25.33;15.23;;;4.80;99.90;;;;;;5054310;28;20243;-60
2022/04/12 02:12:13;;;;;;;24.33;14.73;;;4.90;99.90;;;;;;5040861;28;20277;-60
2022/04/12 02:15:04;;;;;;;26.60;15.83;;;4.80;99.90;;;;;;5055815;28;20219;-60
2022/04/12 02:17:52;;;;;;;24.23;15.77;;;4.80;99.90;;;;;;5052542;28;20220;-58
2022/04/12 02:20:41;;;;;;;24.13;16.03;;;4.70;99.90;;;;;;5045986;28;20225;-61
2022/04/12 02:23:29;;;;;;;25.50;15.80;;;4.80;99.90;;;;;;5050385;28;20216;-58
2022/04/12 02:26:22;;;;;;;25.13;16.20;;;4.70;99.90;;;;;;5039118;28;20230;-59
2022/04/12 02:29:13;;;;;;;27.33;16.03;;;4.80;99.90;;;;;;5056589;28;20222;-59
2022/04/12 02:32:07;;;;;;;29.17;16.27;;;4.70;99.90;;;;;;5043903;28;20229;-60
2022/04/12 02:34:57;;;;;;;25.57;16.93;;;4.70;99.90;;;;;;5052692;28;20227;-61
2022/04/12 02:37:46;;;;;;;29.70;17.50;;;4.60;99.90;;;;;;5052834;28;20230;-61
2022/04/12 02:40:34;;;;;;;29.37;16.80;;;4.60;99.90;;;;;;5065840;28;20221;-61
2022/04/12 02:43:23;;;;;;;27.67;17.90;;;4.60;99.90;;;;;;5051833;28;20243;-61
2022/04/12 02:46:12;;;;;;;28.40;17.87;;;4.60;99.90;;;;;;5055047;28;20218;-61
2022/04/12 02:49:05;;;;;;;27.63;17.80;;;4.50;99.90;;;;;;5052532;28;20219;-60
2022/04/12 02:51:54;;;;;;;28.33;17.63;;;4.50;99.90;;;;;;5056214;28;20223;-61
2022/04/12 02:54:43;;;;;;;27.37;18.13;;;4.50;99.90;;;;;;5044389;28;20233;-62
2022/04/12 02:57:32;;;;;;;32.50;18.40;;;4.50;99.90;;;;;;5037729;28;20220;-61
2022/04/12 03:00:21;;;;;;;26.40;18.77;;;4.40;99.90;;;;;;5061376;28;20238;-60
2022/04/12 03:03:09;;;;;;;26.80;18.17;;;4.50;99.90;;;;;;5053693;28;20234;-61
2022/04/12 03:06:00;;;;;;;26.53;18.57;;;4.40;99.90;;;;;;5067184;28;20285;-61
2022/04/12 03:08:48;;;;;;;29.40;19.37;;;4.40;99.90;;;;;;5062274;28;20337;-61
2022/04/12 03:11:38;;;;;;;33.77;20.50;;;4.30;99.90;;;;;;5057887;28;20253;-60
2022/04/12 03:14:30;;;;;;;30.53;19.43;;;4.40;99.90;;;;;;5051494;28;20727;-60
2022/04/12 03:17:20;;;;;;;30.63;20.37;;;4.40;99.90;;;;;;5058434;28;20223;-61
2022/04/12 03:20:10;;;;;;;31.90;20.43;;;4.40;99.90;;;;;;5040398;28;20359;-60
2022/04/12 03:23:00;;;;;;;31.10;19.27;;;4.30;99.90;;;;;;5052734;28;20225;-61
2022/04/12 03:25:52;;;;;;;33.10;19.80;;;4.30;99.90;;;;;;5057313;28;20226;-61
2022/04/12 03:28:41;;;;;;;34.27;20.63;;;4.30;99.90;;;;;;5016702;28;20235;-62
2022/04/12 03:31:33;;;;;;;32.27;20.87;;;4.30;99.90;;;;;;5017770;28;20227;-62
2022/04/12 03:34:22;;;;;;;32.77;20.97;;;4.20;99.90;;;;;;5040875;28;20230;-64
2022/04/12 03:37:15;;;;;;;32.80;21.43;;;4.20;99.90;;;;;;5021299;28;20714;-61
2022/04/12 03:40:07;;;;;;;34.87;21.40;;;4.10;99.90;;;;;;5016931;28;20225;-61
2022/04/12 03:42:55;;;;;;;30.97;20.90;;;4.10;99.90;;;;;;5010323;28;20737;-61
2022/04/12 03:45:44;;;;;;;36.17;21.77;;;4.10;99.90;;;;;;5021360;28;20223;-62
2022/04/12 03:48:32;;;;;;;33.63;21.73;;;4.00;99.90;;;;;;5031178;28;20310;-62
2022/04/12 03:51:21;;;;;;;31.97;20.73;;;4.00;99.90;;;;;;5030524;28;20236;-61
2022/04/12 03:54:10;;;;;;;34.60;21.13;;;3.90;99.90;;;;;;5029485;28;20232;-62
2022/04/12 03:57:00;;;;;;;35.03;21.70;;;3.80;99.90;;;;;;5013141;28;20235;-61
2022/04/12 03:59:48;;;;;;;33.83;21.80;;;3.90;99.90;;;;;;5034630;28;20216;-61
2022/04/12 04:02:37;;;;;;;37.13;22.47;;;3.90;99.90;;;;;;5027816;28;20226;-62
2022/04/12 04:05:26;;;;;;;39.07;23.10;;;3.90;99.90;;;;;;5031131;28;20766;-62
2022/04/12 04:08:15;;;;;;;34.87;22.47;;;4.00;99.90;;;;;;5020791;28;20599;-61
2022/04/12 04:11:04;;;;;;;37.17;22.60;;;4.00;99.90;;;;;;5029814;28;20223;-61
2022/04/12 04:13:53;;;;;;;39.23;22.73;;;4.10;99.90;;;;;;5031720;28;20219;-61
2022/04/12 04:16:42;;;;;;;35.60;23.20;;;4.10;99.90;;;;;;5035497;28;20244;-60
2022/04/12 04:19:31;;;;;;;34.77;21.50;;;4.00;99.90;;;;;;5026172;28;20235;-62
2022/04/12 04:22:20;;;;;;;35.83;23.10;;;4.00;99.90;;;;;;5032287;28;20239;-62
2022/04/12 04:25:09;;;;;;;37.20;22.30;;;4.00;99.90;;;;;;5031820;28;20233;-62
2022/04/12 04:27:57;;;;;;;41.10;23.17;;;4.00;99.90;;;;;;5052309;28;20233;-61
2022/04/12 04:30:51;;;;;;;35.03;22.80;;;4.00;99.90;;;;;;5069335;28;20824;-60
2022/04/12 04:33:40;;;;;;;36.50;23.93;;;4.00;99.90;;;;;;5052325;28;20723;-62
2022/04/12 04:36:29;;;;;;;35.83;23.97;;;3.90;99.90;;;;;;5064666;28;20216;-62
2022/04/12 04:39:21;;;;;;;37.07;22.60;;;4.10;99.90;;;;;;5044554;28;20734;-62
2022/04/12 04:42:10;;;;;;;33.97;22.27;;;4.10;99.90;;;;;;5037733;28;20540;-65
2022/04/12 04:45:01;;;;;;;36.73;23.63;;;4.20;99.90;;;;;;5062198;28;20227;-63
2022/04/12 04:47:53;;;;;;;34.53;22.87;;;4.20;99.90;;;;;;5054176;28;20249;-63
2022/04/12 04:50:42;;;;;;;36.57;22.43;;;4.30;99.90;;;;;;5054253;28;20310;-63
2022/04/12 04:53:31;;;;;;;42.37;23.87;;;4.20;99.90;;;;;;5035463;28;20227;-62
2022/04/12 04:56:19;;;;;;;36.03;23.57;;;4.40;99.90;;;;;;5052518;28;20224;-61
2022/04/12 04:59:10;;;;;;;37.90;23.03;;;4.40;99.90;;;;;;5049432;28;20877;-60
2022/04/12 05:02:02;;;;;;;38.53;23.03;;;4.40;99.90;;;;;;5051675;28;20227;-57
2022/04/12 05:04:52;;;;;;;36.10;22.87;;;4.50;99.90;;;;;;5059981;28;20277;-61
2022/04/12 05:07:41;;;;;;;38.33;23.23;;;4.60;99.90;;;;;;5048541;28;20367;-60
2022/04/12 05:10:32;;;;;;;36.10;22.10;;;4.70;99.90;;;;;;5047419;28;20568;-61
2022/04/12 05:13:21;;;;;;;34.00;22.23;;;4.80;99.90;;;;;;5037230;28;20218;-60
2022/04/12 05:16:09;;;;;;;37.47;22.03;;;4.90;99.90;;;;;;5053640;28;20228;-61
2022/04/12 05:18:58;;;;;;;34.60;21.63;;;4.90;99.90;;;;;;5054082;28;20231;-61
2022/04/12 05:21:48;;;;;;;31.70;21.23;;;5.00;99.90;;;;;;5050640;28;20232;-60
2022/04/12 05:24:37;;;;;;;34.33;21.77;;;5.10;99.90;;;;;;5040132;28;20271;-62
2022/04/12 05:27:30;;;;;;;36.20;21.70;;;5.30;99.90;;;;;;5056258;28;20722;-63
2022/04/12 05:30:19;;;;;;;36.13;22.03;;;5.40;99.90;;;;;;5057440;28;20219;-61
2022/04/12 05:33:08;;;;;;;34.50;21.00;;;5.50;99.90;;;;;;5036330;28;20216;-61
2022/04/12 05:35:56;;;;;;;33.93;20.57;;;5.60;99.90;;;;;;5045259;28;20324;-61
2022/04/12 05:38:46;;;;;;;31.63;19.97;;;6.00;99.90;;;;;;5054969;28;20228;-61
2022/04/12 05:41:35;;;;;;;31.87;20.47;;;6.80;99.90;;;;;;5065253;28;20219;-61
2022/04/12 05:44:24;;;;;;;32.67;19.27;;;6.90;99.90;;;;;;5036965;28;20764;-62
2022/04/12 05:47:13;;;;;;;26.90;18.60;;;6.90;99.90;;;;;;5057652;28;20222;-60
2022/04/12 05:50:02;;;;;;;31.67;19.10;;;6.70;99.90;;;;;;5058614;28;20230;-61
2022/04/12 05:52:51;;;;;;;30.33;18.57;;;6.70;99.90;;;;;;5060947;28;20225;-60
2022/04/12 05:55:41;;;;;;;32.70;18.23;;;6.70;99.90;;;;;;5061983;28;20228;-60
2022/04/12 05:58:35;;;;;;;31.13;18.47;;;6.70;99.90;;;;;;5058742;28;20508;-60
2022/04/12 06:01:23;;;;;;;28.73;18.23;;;6.70;99.90;;;;;;5047741;28;20223;-59
2022/04/12 06:04:12;;;;;;;23.37;15.87;;;7.00;99.90;;;;;;5026416;28;20751;-61
2022/04/12 06:07:00;;;;;;;30.00;16.07;;;7.40;99.90;;;;;;5059212;28;20234;-62
2022/04/12 06:09:49;;;;;;;28.98;16.55;;;7.90;99.90;;;;;;5044022;28;20227;-60
2022/04/12 06:12:43;;;;;;;24.73;16.15;;;8.00;99.90;;;;;;5055170;28;20216;-60
2022/04/12 06:15:32;;;;;;;26.85;15.40;;;8.10;99.90;;;;;;5058098;28;20785;-61
2022/04/12 06:18:26;;;;;;;23.65;14.43;;;7.80;99.90;;;;;;5059850;28;20231;-63
2022/04/12 06:21:15;;;;;;;24.08;15.63;;;7.70;99.90;;;;;;5053498;28;20217;-62
2022/04/12 06:24:05;;;;;;;29.20;15.50;;;7.70;99.90;;;;;;5037817;28;20260;-63
2022/04/12 06:26:54;;;;;;;27.60;15.13;;;7.70;99.90;;;;;;5050604;28;20525;-65
2022/04/12 06:29:44;;;;;;;28.00;15.47;;;7.70;99.90;;;;;;5068104;28;20234;-61
2022/04/12 06:32:33;;;;;;;25.80;15.50;;;7.60;99.90;;;;;;5038782;28;20228;-63
2022/04/12 06:35:22;;;;;;;27.60;16.37;;;7.60;99.90;;;;;;5047548;28;20247;-63
2022/04/12 06:38:11;;;;;;;29.90;16.43;;;7.60;99.90;;;;;;5047974;28;20217;-62
2022/04/12 06:40:59;;;;;;;29.67;15.47;;;7.60;99.90;;;;;;5040022;28;20230;-62
2022/04/12 06:43:48;;;;;;;25.63;16.03;;;7.70;99.90;;;;;;5043214;28;20237;-62
2022/04/12 06:46:38;;;;;;;22.57;14.57;;;7.80;99.90;;;;;;5055082;28;20279;-62
2022/04/12 06:49:27;;;;;;;22.23;13.47;;;8.00;99.90;;;;;;5060597;28;20306;-61
2022/04/12 06:52:17;;;;;;;25.43;14.17;;;8.10;99.90;;;;;;5060359;28;20232;-61
2022/04/12 06:55:07;;;;;;;26.60;14.77;;;8.30;99.90;;;;;;5066499;28;20228;-61
2022/04/12 06:57:57;;;;;;;22.60;14.27;;;8.50;99.90;;;;;;5045631;28;20806;-61
2022/04/12 07:00:46;;;;;;;25.85;13.63;;;8.90;99.90;;;;;;5049974;28;20699;-61
2022/04/12 07:03:36;;;;;;;19.63;12.13;;;10.30;99.90;;;;;;5055865;28;20223;-60
2022/04/12 07:06:25;;;;;;;25.25;16.10;;;11.70;99.90;;;;;;5056230;28;20221;-62
2022/04/12 07:09:18;;;;;;;16.75;10.65;;;12.30;99.90;;;;;;5054422;28;20216;-61
2022/04/12 07:12:09;;;;;;;17.10;10.27;;;13.00;99.90;;;;;;5057052;28;20228;-63
2022/04/12 07:14:57;;;;;;;17.20;9.93;;;13.50;99.90;;;;;;5054630;28;20725;-61
2022/04/12 07:17:46;;;;;;;18.08;10.02;;;14.40;95.60;;;;;;5056065;28;20212;-62
2022/04/12 07:20:36;;;;;;;17.33;9.93;;;14.70;93.00;;;;;;5054490;28;20212;-63
2022/04/12 07:23:24;;;;;;;10.48;7.00;;;15.10;90.10;;;;;;5045005;28;20227;-61
2022/04/12 07:26:15;;;;;;;18.75;7.50;;;16.00;84.80;;;;;;5057693;28;20239;-62
2022/04/12 07:29:04;;;;;;;12.70;6.93;;;16.30;82.00;;;;;;5042931;28;20220;-61
2022/04/12 07:31:53;;;;;;;13.13;5.93;;;16.40;78.60;;;;;;5044346;28;20216;-61
2022/04/12 07:34:42;;;;;;;15.00;7.15;;;17.00;76.50;;;;;;5055008;28;20332;-61
2022/04/12 07:37:32;;;;;;;12.07;6.43;;;17.20;74.60;;;;;;5043986;28;20231;-62
2022/04/12 07:40:20;;;;;;;9.98;5.82;;;17.30;72.80;;;;;;5072688;28;20216;-61
2022/04/12 07:43:09;;;;;;;9.85;6.05;;;17.70;70.60;;;;;;5054446;28;20239;-62
2022/04/12 07:45:58;;;;;;;11.88;6.32;;;18.20;70.00;;;;;;5043291;28;20231;-61
2022/04/12 07:49:06;;;;;;;12.75;6.75;;;18.80;67.50;;;;;;5058065;28;20292;-62
2022/04/12 07:51:55;;;;;;;9.93;7.00;;;16.80;70.80;;;;;;5041277;28;20315;-61
2022/04/12 07:54:45;;;;;;;10.75;6.13;;;17.90;69.00;;;;;;5044248;28;20217;-61
2022/04/12 07:57:33;;;;;;;11.93;5.45;;;19.10;65.30;;;;;;5055175;28;20221;-62
2022/04/12 08:00:22;;;;;;;12.57;5.72;;;19.20;64.10;;;;;;5041197;28;20404;-62
2022/04/12 08:03:12;;;;;;;12.65;6.47;;;18.50;61.90;;;;;;5058007;28;20220;-63
2022/04/12 08:06:01;;;;;;;9.80;6.43;;;15.40;67.40;;;;;;5054827;28;20308;-63
2022/04/12 08:08:50;;;;;;;7.78;5.97;;;14.60;71.70;;;;;;5057698;28;20216;-62
2022/04/12 08:11:40;;;;;;;6.93;5.53;;;15.00;71.40;;;;;;5049664;28;20238;-62
2022/04/12 08:14:28;;;;;;;8.82;6.80;;;15.60;69.70;;;;;;5036140;28;20232;-62
2022/04/12 08:17:17;;;;;;;9.90;6.88;;;16.50;65.20;;;;;;5057797;28;20227;-61
2022/04/12 08:20:07;;;;;;;10.27;4.88;;;15.10;66.80;;;;;;5069201;28;20235;-62
2022/04/12 08:22:56;;;;;;;6.07;4.10;;;18.20;65.00;;;;;;5056056;28;20227;-62
2022/04/12 08:25:45;;;;;;;9.30;4.00;;;20.10;59.50;;;;;;5039289;28;20232;-63
2022/04/12 08:28:35;;;;;;;6.60;4.43;;;22.30;55.20;;;;;;5042097;28;20713;-61
2022/04/12 08:31:24;;;;;;;8.77;5.20;;;23.20;51.60;;;;;;5053750;28;20220;-63
2022/04/12 08:34:13;;;;;;;8.75;4.63;;;20.40;54.90;;;;;;5054116;28;20220;-62
2022/04/12 08:37:02;;;;;;;7.88;4.80;;;21.90;53.60;;;;;;5059849;28;20330;-62
2022/04/12 08:39:50;;;;;;;5.18;3.03;;;22.60;52.00;;;;;;5044777;28;20773;-62
2022/04/12 08:42:41;;;;;;;6.00;3.38;;;18.60;53.30;;;;;;5042219;28;20237;-64
2022/04/12 08:45:36;;;;;;;5.55;2.88;;;16.60;57.40;;;;;;5045333;28;20220;-62
2022/04/12 08:48:25;;;;;;;5.75;2.40;;;15.80;57.00;;;;;;5057780;28;20229;-62
2022/04/12 08:51:14;;;;;;;8.13;3.67;;;14.50;59.50;;;;;;5059647;28;20213;-63
2022/04/12 08:54:03;;;;;;;6.30;3.70;;;14.20;62.90;;;;;;5064416;28;20226;-61
2022/04/12 08:56:53;;;;;;;8.95;3.50;;;19.00;58.50;;;;;;5054831;28;20232;-62
2022/04/12 08:59:42;;;;;;;5.07;3.72;;;20.70;53.50;;;;;;5063584;28;20232;-62
2022/04/12 09:02:32;;;;;;;7.47;4.10;;;19.90;50.30;;;;;;5025751;28;20303;-61
2022/04/12 09:05:23;;;;;;;5.78;4.03;;;18.20;54.00;;;;;;5051765;28;20755;-62
2022/04/12 09:08:25;;;;;;;9.73;4.97;;;16.40;57.10;;;;;;5048396;28;20231;-62
2022/04/12 09:11:16;;;;;;;8.93;4.88;;;15.20;60.70;;;;;;5059149;28;21357;-62
2022/04/12 09:14:05;;;;;;;6.57;4.10;;;14.50;62.90;;;;;;5060681;28;20223;-61
2022/04/12 09:16:54;;;;;;;9.60;4.22;;;13.50;63.90;;;;;;5067141;28;20230;-61
2022/04/12 09:19:46;;;;;;;6.97;3.65;;;13.30;66.00;;;;;;5050034;28;20235;-61
2022/04/12 09:22:35;;;;;;;9.77;3.92;;;12.80;66.30;;;;;;5072742;28;20731;-62
2022/04/12 09:25:29;;;;;;;8.02;3.85;;;12.90;66.70;;;;;;5063475;28;20241;-61
2022/04/12 09:28:17;;;;;;;8.63;4.60;;;13.30;66.00;;;;;;5059076;28;20236;-62
2022/04/12 09:31:20;;;;;;;7.80;4.55;;;13.40;66.40;;;;;;5051882;28;20745;-61
2022/04/12 09:34:09;;;;;;;6.63;4.05;;;12.70;66.70;;;;;;5057913;28;20221;-61
2022/04/12 09:37:24;;;;;;;7.55;3.97;;;12.50;69.00;;;;;;5065135;28;20227;-62
2022/04/12 09:40:15;;;;;;;5.43;3.63;;;12.70;67.70;;;;;;5069614;28;20330;-63
2022/04/12 09:43:05;;;;;;;6.90;4.40;;;12.90;65.50;;;;;;5058115;28;20602;-62
2022/04/12 09:45:55;;;;;;;7.55;4.40;;;14.00;65.40;;;;;;5044416;28;20367;-61
2022/04/12 09:48:47;;;;;;;6.55;4.18;;;16.10;61.30;;;;;;5062615;28;20216;-62
2022/04/12 09:51:37;;;;;;;6.47;4.00;;;18.20;57.50;;;;;;5068541;28;20227;-61
2022/04/12 09:54:34;;;;;;;8.65;4.70;;;16.90;56.70;;;;;;5041783;28;20239;-61
2022/04/12 09:57:23;;;;;;;6.43;3.65;;;15.10;60.30;;;;;;5051831;28;20238;-63
2022/04/12 10:00:13;;;;;;;7.18;4.30;;;13.50;64.60;;;;;;5066437;28;20228;-62
2022/04/12 10:03:04;;;;;;;7.30;4.20;;;12.90;67.30;;;;;;5049145;28;20227;-62
2022/04/12 10:05:53;;;;;;;5.32;3.58;;;13.30;67.70;;;;;;5043602;28;20232;-60
2022/04/12 10:08:43;;;;;;;8.13;3.47;;;14.30;61.70;;;;;;5057330;28;21042;-61
2022/04/12 10:11:37;;;;;;;8.70;3.30;;;14.80;59.50;;;;;;5054990;28;20303;-62
2022/04/12 10:14:26;;;;;;;10.00;6.72;;;14.40;59.30;;;;;;5048657;28;20659;-62
2022/04/12 10:17:15;;;;;;;7.75;4.15;;;14.30;60.40;;;;;;5049040;28;20216;-63
2022/04/12 10:20:06;;;;;;;8.18;4.90;;;13.70;62.60;;;;;;5070241;28;20229;-61
2022/04/12 10:22:57;;;;;;;6.50;4.22;;;13.40;65.80;;;;;;5073273;28;20250;-60
2022/04/12 10:25:50;;;;;;;10.30;4.95;;;13.60;66.10;;;;;;5059711;28;20808;-61
2022/04/12 10:28:44;;;;;;;7.57;4.25;;;13.40;67.10;;;;;;5056343;28;20224;-62
2022/04/12 10:31:33;;;;;;;8.05;4.20;;;13.20;67.30;;;;;;5066590;28;20404;-62
2022/04/12 10:34:28;;;;;;;6.97;4.20;;;13.20;65.90;;;;;;5060292;28;20255;-61
2022/04/12 10:37:18;;;;;;;7.65;3.97;;;12.50;65.20;;;;;;5060614;28;20216;-62
2022/04/12 10:40:27;;;;;;;6.20;3.60;;;12.70;64.30;;;;;;5060733;28;20212;-62
2022/04/12 10:43:24;;;;;;;6.47;3.72;;;12.60;64.00;;;;;;5042501;28;20224;-61
2022/04/12 10:46:14;;;;;;;6.35;3.75;;;13.00;64.80;;;;;;5070451;28;20239;-61
2022/04/12 10:49:07;;;;;;;5.82;3.78;;;12.90;64.00;;;;;;5061582;28;20231;-62
2022/04/12 10:52:00;;;;;;;9.50;4.20;;;12.80;65.00;;;;;;5067491;28;20360;-62
2022/04/12 10:54:50;;;;;;;5.82;3.95;;;12.80;66.00;;;;;;5039828;28;20221;-62
2022/04/12 10:57:39;;;;;;;5.28;4.05;;;13.10;65.70;;;;;;5070535;28;20579;-62
2022/04/12 11:00:31;;;;;;;6.22;4.32;;;13.30;63.40;;;;;;5047437;28;20247;-60
2022/04/12 11:03:27;;;;;;;4.75;3.47;;;13.40;62.80;;;;;;5060676;28;20216;-61
2022/04/12 11:06:23;;;;;;;7.95;3.78;;;13.70;61.80;;;;;;5057882;28;20220;-61
2022/04/12 11:09:16;;;;;;;7.43;4.32;;;14.00;61.00;;;;;;5066575;28;20293;-60
2022/04/12 11:12:05;;;;;;;7.40;4.05;;;14.40;60.40;;;;;;5042238;28;20251;-61
2022/04/12 11:15:20;;;;;;;6.78;4.18;;;15.00;60.50;;;;;;5058157;28;20216;-60
2022/04/12 11:18:12;;;;;;;8.52;4.30;;;16.10;56.80;;;;;;5058548;28;20212;-62
2022/04/12 11:21:04;;;;;;;6.93;4.30;;;15.30;58.20;;;;;;5040649;28;20235;-61
2022/04/12 11:23:58;;;;;;;6.20;4.00;;;15.20;58.30;;;;;;5046939;28;20232;-64
2022/04/12 11:26:49;;;;;;;9.13;5.05;;;14.70;60.00;;;;;;5047822;28;20548;-61
2022/04/12 11:29:38;;;;;;;8.73;4.90;;;14.10;61.90;;;;;;5061741;28;20212;-60
2022/04/12 11:32:27;;;;;;;9.27;4.93;;;14.00;63.20;;;;;;5060813;28;20217;-59
2022/04/12 11:35:19;;;;;;;11.23;5.60;;;14.00;64.90;;;;;;5062889;28;20227;-61
2022/04/12 11:38:09;;;;;;;8.70;5.53;;;14.10;64.90;;;;;;5053925;28;20220;-61
2022/04/12 11:41:02;;;;;;;6.90;4.45;;;14.50;65.30;;;;;;5057921;28;20225;-61
2022/04/12 11:43:59;;;;;;;6.47;4.28;;;14.40;61.30;;;;;;5060245;28;20745;-61
2022/04/12 11:46:56;;;;;;;5.78;4.30;;;14.90;59.00;;;;;;5063151;28;20216;-62
2022/04/12 11:49:45;;;;;;;7.28;4.30;;;16.10;56.60;;;;;;5055462;28;20232;-62
2022/04/12 11:52:34;;;;;;;7.78;4.60;;;15.90;55.60;;;;;;5057559;28;20213;-61
2022/04/12 11:55:25;;;;;;;7.35;4.40;;;15.40;56.60;;;;;;5044878;28;20593;-62
2022/04/12 11:58:14;;;;;;;7.85;4.57;;;14.60;58.60;;;;;;5061822;28;20224;-62
2022/04/12 12:01:03;;;;;;;8.48;4.30;;;14.20;60.00;;;;;;5066759;28;20228;-61
2022/04/12 12:03:51;;;;;;;7.43;4.35;;;14.00;61.00;;;;;;5041452;28;20232;-60
2022/04/12 12:06:54;;;;;;;8.13;4.57;;;13.60;61.60;;;;;;5042548;28;20234;-60
2022/04/12 12:09:53;;;;;;;9.98;4.55;;;13.50;61.80;;;;;;5057146;28;20235;-61
2022/04/12 12:12:45;;;;;;;7.72;4.45;;;13.20;63.20;;;;;;5037851;28;20228;-62
2022/04/12 12:15:37;;;;;;;6.82;4.47;;;13.10;64.00;;;;;;5043537;28;20224;-62
2022/04/12 12:18:25;;;;;;;7.50;4.90;;;13.20;62.70;;;;;;5045178;28;20231;-62
2022/04/12 12:21:18;;;;;;;7.57;3.58;;;13.10;63.10;;;;;;5073066;28;20293;-67
2022/04/12 12:24:10;;;;;;;6.55;3.53;;;13.10;59.90;;;;;;5061671;28;20227;-61
2022/04/12 12:26:59;;;;;;;5.57;3.25;;;13.20;59.40;;;;;;5046045;28;20227;-61
2022/04/12 12:29:50;;;;;;;7.07;4.50;;;13.00;60.90;;;;;;5056842;28;20717;-62
2022/04/12 12:32:41;;;;;;;8.45;4.60;;;12.90;62.70;;;;;;5059432;28;20217;-62
2022/04/12 12:35:30;;;;;;;6.93;4.10;;;13.00;62.60;;;;;;5054914;28;20221;-60
2022/04/12 12:38:27;;;;;;;9.68;4.35;;;12.80;63.90;;;;;;5066522;28;20235;-61
2022/04/12 12:41:25;;;;;;;8.20;4.45;;;13.00;64.00;;;;;;5061044;28;20304;-61
2022/04/12 12:44:14;;;;;;;6.32;3.67;;;12.90;63.90;;;;;;5055899;28;20269;-62
2022/04/12 12:47:06;;;;;;;6.40;3.90;;;12.60;61.50;;;;;;5053966;28;20232;-61
2022/04/12 12:49:55;;;;;;;5.57;3.53;;;12.70;61.40;;;;;;5057169;28;20236;-63
2022/04/12 12:52:44;;;;;;;6.03;3.80;;;12.60;62.00;;;;;;5052245;28;20234;-62
2022/04/12 12:55:35;;;;;;;5.85;3.33;;;12.70;62.60;;;;;;5053970;28;20217;-63
2022/04/12 12:58:30;;;;;;;5.63;3.78;;;12.60;62.70;;;;;;5055910;28;20228;-58
2022/04/12 13:01:18;;;;;;;6.10;3.42;;;12.70;62.90;;;;;;5064029;28;20825;-61
2022/04/12 13:04:20;;;;;;;4.88;3.50;;;12.70;62.90;;;;;;5054448;28;20321;-63
2022/04/12 13:07:11;;;;;;;8.68;3.50;;;12.70;63.10;;;;;;5049262;28;20223;-61
2022/04/12 13:10:10;;;;;;;4.43;3.45;;;12.80;61.60;;;;;;5056699;28;20581;-62
2022/04/12 13:12:59;;;;;;;8.23;3.90;;;12.70;62.10;;;;;;5058034;28;20333;-62
2022/04/12 13:15:48;;;;;;;7.10;3.78;;;12.60;62.70;;;;;;5046938;28;20276;-65
2022/04/12 13:18:36;;;;;;;6.18;3.22;;;12.60;63.00;;;;;;5037110;28;20236;-62
2022/04/12 13:21:26;;;;;;;6.35;3.33;;;12.50;63.10;;;;;;5061048;28;20226;-63
2022/04/12 13:24:15;;;;;;;7.53;3.40;;;12.50;61.60;;;;;;5041702;28;20251;-62
2022/04/12 13:27:04;;;;;;;6.35;2.97;;;12.40;61.80;;;;;;5056770;28;20232;-62
2022/04/12 13:29:53;;;;;;;6.25;3.63;;;12.50;60.70;;;;;;5056686;28;20243;-61
2022/04/12 13:32:43;;;;;;;5.13;3.08;;;12.40;61.80;;;;;;5054055;28;20560;-62
2022/04/12 14:04:43;;;;;;;8.00;2.72;;;12.20;59.40;;;;;;5018240;28;21333;-61
2022/04/12 14:07:39;;;;;;;8.10;2.97;;;12.20;60.00;;;;;;5011400;28;20233;-60
2022/04/12 14:10:28;;;;;;;5.38;2.63;;;11.90;60.00;;;;;;5011384;28;20229;-59
2022/04/12 14:13:16;;;;;;;5.07;2.70;;;11.80;59.80;;;;;;5013995;28;20271;-60
2022/04/12 14:16:06;;;;;;;4.88;2.63;;;11.80;58.80;;;;;;5001781;28;20300;-58
2022/04/12 14:18:56;;;;;;;4.68;2.58;;;11.80;57.10;;;;;;5011816;28;20229;-60
2022/04/12 14:21:45;;;;;;;7.30;2.63;;;11.80;57.40;;;;;;5029900;28;20223;-62
2022/04/12 14:24:35;;;;;;;7.40;2.50;;;11.90;57.60;;;;;;5037021;28;20236;-61
2022/04/12 14:27:24;;;;;;;3.25;2.10;;;11.90;57.70;;;;;;5040173;28;20225;-59
2022/04/12 14:30:13;;;;;;;4.82;2.30;;;12.00;58.00;;;;;;5038164;28;20239;-61
2022/04/12 14:33:02;;;;;;;4.80;2.60;;;12.00;57.70;;;;;;5035465;28;20962;-58
2022/04/12 14:35:51;;;;;;;4.25;2.40;;;12.00;58.30;;;;;;5039298;28;20236;-61
2022/04/12 14:38:42;;;;;;;6.85;2.40;;;12.10;58.60;;;;;;5032647;28;20221;-62
2022/04/12 14:41:31;;;;;;;4.57;2.15;;;12.20;57.80;;;;;;5035555;28;20240;-62
2022/04/12 14:44:20;;;;;;;6.32;2.42;;;12.20;58.20;;;;;;5036008;28;20243;-61
2022/04/12 14:47:09;;;;;;;5.78;2.60;;;12.20;56.70;;;;;;5034416;28;20228;-59
2022/04/12 14:49:58;;;;;;;5.20;2.33;;;12.10;56.10;;;;;;5032588;28;20594;-58
2022/04/12 14:52:46;;;;;;;5.88;2.40;;;12.00;55.70;;;;;;5033871;28;20222;-58
2022/04/12 14:55:37;;;;;;;5.80;2.53;;;11.90;54.50;;;;;;5034257;28;20232;-59
2022/04/12 14:58:30;;;;;;;8.63;2.33;;;12.00;55.50;;;;;;5035134;28;20731;-58
2022/04/12 15:01:19;;;;;;;5.15;2.53;;;12.00;55.00;;;;;;5037842;28;20225;-61
2022/04/12 15:04:08;;;;;;;5.97;2.38;;;12.00;55.20;;;;;;5033339;28;20245;-59
2022/04/12 15:06:56;;;;;;;5.13;2.50;;;12.10;55.60;;;;;;5037928;28;20296;-58
2022/04/12 15:09:49;;;;;;;3.88;2.42;;;12.10;55.60;;;;;;5039337;28;20223;-59